createdAt,value
2019-03-24T00:00:53.893Z,82.80
2019-03-24T00:04:07.931Z,82.96
2019-03-24T00:07:21.959Z,83.05
2019-03-24T00:10:36.236Z,83.24
2019-03-24T00:13:50.569Z,83.23
2019-03-24T00:17:05.075Z,83.20
2019-03-24T00:20:19.339Z,83.07
2019-03-24T00:23:33.636Z,83.33
2019-03-24T00:26:47.904Z,83.32
2019-03-24T00:30:02.130Z,83.58
2019-03-24T00:33:16.296Z,83.93
2019-03-24T00:36:30.756Z,83.76
2019-03-24T00:39:44.746Z,83.60
2019-03-24T00:42:58.924Z,83.51
2019-03-24T00:46:13.156Z,83.83
2019-03-24T00:49:27.423Z,83.93
2019-03-24T00:52:41.444Z,83.90
2019-03-24T00:55:55.559Z,83.66
2019-03-24T00:59:09.716Z,83.53
2019-03-24T01:02:23.856Z,84.04
2019-03-24T01:05:37.982Z,84.87
2019-03-24T01:08:52.132Z,84.96
2019-03-24T01:12:06.380Z,84.73
2019-03-24T01:15:20.548Z,84.58
2019-03-24T01:18:34.585Z,84.68
2019-03-24T01:21:48.602Z,84.51
2019-03-24T01:25:03.061Z,84.23
2019-03-24T01:28:17.368Z,84.16
2019-03-24T01:31:31.523Z,83.95
2019-03-24T01:34:45.839Z,83.96
2019-03-24T01:38:00.308Z,84.56
2019-03-24T01:41:14.735Z,84.00
2019-03-24T01:44:28.848Z,83.84
2019-03-24T01:47:42.997Z,84.07
2019-03-24T01:50:57.022Z,84.08
2019-03-24T01:54:11.261Z,84.12
2019-03-24T01:57:25.371Z,84.00
2019-03-24T02:00:39.694Z,83.94
2019-03-24T02:03:53.733Z,83.82
2019-03-24T02:07:07.759Z,83.81
2019-03-24T02:10:21.894Z,84.17
2019-03-24T02:13:35.929Z,84.21
2019-03-24T02:16:50.456Z,84.06
2019-03-24T02:20:06.128Z,83.89
2019-03-24T02:23:20.284Z,83.93
2019-03-24T02:26:34.309Z,84.04
2019-03-24T02:29:48.601Z,84.16
2019-03-24T02:33:03.094Z,84.32
2019-03-24T02:36:17.126Z,84.64
2019-03-24T02:39:31.126Z,85.00
2019-03-24T02:42:45.181Z,84.66
2019-03-24T02:45:59.483Z,84.74
2019-03-24T02:49:13.500Z,84.67
2019-03-24T02:52:27.553Z,84.49
2019-03-24T02:55:41.589Z,84.28
2019-03-24T02:58:55.902Z,84.47
2019-03-24T03:02:10.115Z,84.63
2019-03-24T03:05:24.263Z,84.51
2019-03-24T03:08:38.290Z,84.30
2019-03-24T03:11:52.337Z,84.19
2019-03-24T03:15:07.342Z,83.96
2019-03-24T03:18:21.594Z,84.12
2019-03-24T03:21:35.993Z,84.24
2019-03-24T03:24:50.027Z,84.62
2019-03-24T03:28:04.191Z,84.60
2019-03-24T03:31:18.494Z,84.43
2019-03-24T03:34:32.509Z,84.46
2019-03-24T03:37:46.561Z,84.42
2019-03-24T03:41:01.149Z,84.09
2019-03-24T03:44:15.276Z,84.25
2019-03-24T03:47:29.430Z,84.23
2019-03-24T03:50:43.464Z,84.27
2019-03-24T03:53:59.145Z,84.25
2019-03-24T03:57:13.632Z,84.44
2019-03-24T04:00:32.012Z,84.60
2019-03-24T04:03:46.327Z,84.73
2019-03-24T04:07:00.356Z,84.84
2019-03-24T04:10:14.375Z,84.68
2019-03-24T04:13:28.713Z,84.50
2019-03-24T04:16:42.696Z,84.27
2019-03-24T04:19:56.927Z,84.40
2019-03-24T04:23:11.037Z,84.55
2019-03-24T04:26:25.045Z,84.39
2019-03-24T04:29:39.276Z,84.67
2019-03-24T04:32:53.400Z,84.60
2019-03-24T04:36:07.543Z,84.51
2019-03-24T04:39:21.570Z,84.91
2019-03-24T04:42:35.783Z,85.10
2019-03-24T04:45:50.004Z,84.98
2019-03-24T04:49:04.129Z,84.73
2019-03-24T04:52:18.254Z,84.86
2019-03-24T04:55:32.270Z,84.57
2019-03-24T04:58:46.581Z,84.65
2019-03-24T05:02:00.693Z,84.84
2019-03-24T05:05:14.717Z,84.85
2019-03-24T05:08:29.462Z,84.91
2019-03-24T05:11:43.555Z,84.61
2019-03-24T05:14:58.347Z,85.21
2019-03-24T05:18:12.462Z,85.14
2019-03-24T05:21:26.833Z,85.33
2019-03-24T05:24:40.833Z,85.28
2019-03-24T05:27:54.900Z,85.07
2019-03-24T05:31:09.196Z,85.01
2019-03-24T05:34:23.207Z,84.64
2019-03-24T05:37:37.218Z,84.62
2019-03-24T05:40:51.522Z,84.83
2019-03-24T05:44:05.766Z,84.66
2019-03-24T05:47:19.886Z,84.61
2019-03-24T05:50:34.238Z,84.82
2019-03-24T05:53:48.258Z,85.12
2019-03-24T05:57:02.627Z,85.00
2019-03-24T06:00:16.864Z,84.91
2019-03-24T06:03:31.251Z,85.03
2019-03-24T06:06:45.263Z,85.01
2019-03-24T06:09:59.558Z,84.85
2019-03-24T06:13:13.619Z,85.10
2019-03-24T06:16:27.952Z,84.73
2019-03-24T06:19:41.990Z,85.02
2019-03-24T06:22:56.120Z,85.08
2019-03-24T06:26:10.350Z,85.01
2019-03-24T06:29:24.346Z,84.98
2019-03-24T06:32:38.600Z,84.76
2019-03-24T06:35:52.804Z,84.59
2019-03-24T06:39:07.128Z,84.28
2019-03-24T06:42:21.495Z,84.27
2019-03-24T06:45:35.565Z,84.63
2019-03-24T06:48:49.847Z,84.53
2019-03-24T06:52:04.102Z,84.35
2019-03-24T06:55:18.222Z,84.08
2019-03-24T06:58:32.371Z,83.70
2019-03-24T07:01:46.368Z,83.80
2019-03-24T07:05:00.493Z,83.63
2019-03-24T07:08:14.846Z,83.69
2019-03-24T07:11:29.066Z,83.27
2019-03-24T07:14:43.185Z,82.88
2019-03-24T07:17:57.201Z,82.84
2019-03-24T07:21:11.223Z,82.67
2019-03-24T07:24:25.242Z,82.37
2019-03-24T07:27:39.267Z,82.27
2019-03-24T07:30:53.285Z,82.37
2019-03-24T07:34:07.335Z,82.39
2019-03-24T07:37:21.738Z,81.63
2019-03-24T07:40:35.760Z,81.35
2019-03-24T07:43:49.767Z,81.07
2019-03-24T07:47:10.866Z,81.23
2019-03-24T07:50:25.175Z,81.47
2019-03-24T07:53:39.213Z,81.58
2019-03-24T07:56:53.358Z,81.19
2019-03-24T08:00:10.287Z,80.64
2019-03-24T08:03:24.622Z,81.47
2019-03-24T08:06:38.629Z,81.58
2019-03-24T08:09:52.939Z,80.82
2019-03-24T08:13:06.951Z,81.28
2019-03-24T08:16:20.979Z,82.20
2019-03-24T08:19:35.281Z,82.93
2019-03-24T08:22:49.339Z,81.37
2019-03-24T08:26:03.476Z,79.25
2019-03-24T08:29:17.838Z,78.28
2019-03-24T08:32:31.931Z,79.06
2019-03-24T08:35:46.226Z,77.02
2019-03-24T08:39:00.469Z,77.22
2019-03-24T08:42:15.042Z,76.79
2019-03-24T08:45:29.651Z,75.34
2019-03-24T08:48:43.835Z,74.94
2019-03-24T08:51:57.928Z,73.56
2019-03-24T08:55:11.976Z,73.30
2019-03-24T08:58:26.052Z,73.46
2019-03-24T09:01:40.419Z,72.51
2019-03-24T09:04:54.741Z,72.31
2019-03-24T09:08:08.844Z,71.52
2019-03-24T09:11:30.817Z,70.99
2019-03-24T09:14:39.243Z,70.51
2019-03-24T09:17:53.659Z,69.17
2019-03-24T09:21:07.674Z,68.57
2019-03-24T09:24:21.670Z,68.52
2019-03-24T09:27:35.942Z,67.97
2019-03-24T09:30:49.966Z,66.76
2019-03-24T09:34:04.114Z,66.34
2019-03-24T09:37:18.136Z,65.78
2019-03-24T09:40:34.397Z,65.04
2019-03-24T09:43:48.394Z,64.42
2019-03-24T09:47:02.542Z,62.97
2019-03-24T09:50:16.656Z,62.68
2019-03-24T09:53:30.670Z,61.34
2019-03-24T09:56:44.948Z,61.83
2019-03-24T09:59:58.975Z,62.23
2019-03-24T10:03:13.282Z,62.24
2019-03-24T10:06:27.610Z,61.08
2019-03-24T10:09:41.739Z,60.32
2019-03-24T10:12:55.749Z,59.61
2019-03-24T10:16:09.790Z,58.34
2019-03-24T10:19:23.812Z,58.82
2019-03-24T10:22:37.956Z,58.33
2019-03-24T10:25:52.218Z,57.60
2019-03-24T10:29:06.946Z,58.75
2019-03-24T10:32:20.961Z,59.59
2019-03-24T10:35:35.385Z,58.97
2019-03-24T10:38:49.409Z,58.46
2019-03-24T10:42:03.630Z,57.61
2019-03-24T10:45:17.847Z,56.12
2019-03-24T10:48:33.870Z,55.12
2019-03-24T10:51:48.008Z,54.66
2019-03-24T10:55:02.649Z,53.52
2019-03-24T10:58:16.776Z,53.97
2019-03-24T11:01:30.898Z,55.12
2019-03-24T11:04:45.302Z,54.86
2019-03-24T11:07:59.430Z,53.10
2019-03-24T11:11:13.621Z,51.43
2019-03-24T11:14:27.608Z,51.34
2019-03-24T11:17:41.718Z,53.40
2019-03-24T11:20:56.131Z,53.40
2019-03-24T11:24:10.370Z,51.44
2019-03-24T11:27:24.382Z,49.50
2019-03-24T11:30:38.406Z,50.98
2019-03-24T11:33:52.727Z,51.83
2019-03-24T11:37:06.843Z,52.64
2019-03-24T11:40:20.962Z,52.08
2019-03-24T11:43:35.086Z,51.81
2019-03-24T11:46:49.140Z,49.97
2019-03-24T11:50:04.187Z,51.16
2019-03-24T11:53:18.204Z,49.92
2019-03-24T11:56:32.250Z,51.13
2019-03-24T11:59:46.387Z,50.27
2019-03-24T12:03:00.810Z,49.41
2019-03-24T12:06:15.172Z,51.72
2019-03-24T12:09:29.701Z,52.76
2019-03-24T12:12:44.029Z,52.58
2019-03-24T12:15:58.271Z,51.79
2019-03-24T12:19:12.285Z,51.42
2019-03-24T12:22:26.627Z,51.55
2019-03-24T12:25:40.863Z,52.30
2019-03-24T12:28:54.890Z,51.87
2019-03-24T12:32:08.922Z,52.01
2019-03-24T12:35:23.258Z,51.81
2019-03-24T12:38:37.279Z,51.42
2019-03-24T12:41:51.658Z,52.14
2019-03-24T12:45:07.577Z,54.36
2019-03-24T12:48:21.961Z,54.31
2019-03-24T12:51:36.088Z,54.09
2019-03-24T12:54:50.516Z,53.66
2019-03-24T12:58:04.689Z,54.47
2019-03-24T13:01:18.729Z,54.59
2019-03-24T13:04:33.051Z,54.27
2019-03-24T13:07:47.096Z,53.96
2019-03-24T13:11:01.220Z,53.87
2019-03-24T13:14:15.567Z,54.63
2019-03-24T13:17:29.942Z,54.93
2019-03-24T13:20:44.151Z,55.02
2019-03-24T13:23:58.479Z,55.85
2019-03-24T13:27:12.495Z,55.03
2019-03-24T13:30:26.507Z,55.03
2019-03-24T13:33:40.532Z,53.79
2019-03-24T13:36:54.558Z,51.54
2019-03-24T13:40:09.149Z,49.37
2019-03-24T13:43:23.180Z,49.70
2019-03-24T13:46:37.199Z,49.09
2019-03-24T13:49:51.225Z,49.69
2019-03-24T13:53:05.467Z,48.99
2019-03-24T13:56:19.628Z,48.57
2019-03-24T13:59:33.650Z,47.52
2019-03-24T14:02:47.891Z,47.09
2019-03-24T14:06:01.907Z,44.87
2019-03-24T14:09:16.342Z,43.68
2019-03-24T14:12:30.827Z,41.94
2019-03-24T14:15:44.968Z,41.04
2019-03-24T14:18:59.046Z,40.72
2019-03-24T14:22:13.069Z,40.20
2019-03-24T14:25:27.106Z,41.06
2019-03-24T14:28:41.137Z,42.01
2019-03-24T14:31:55.154Z,40.93
2019-03-24T14:35:09.195Z,42.79
2019-03-24T14:38:23.477Z,44.57
2019-03-24T14:41:38.174Z,45.36
2019-03-24T14:44:52.198Z,45.75
2019-03-24T14:48:06.356Z,45.30
2019-03-24T14:51:20.371Z,45.24
2019-03-24T14:54:34.410Z,46.56
2019-03-24T14:57:48.663Z,46.64
2019-03-24T15:01:02.860Z,47.06
2019-03-24T15:04:17.003Z,48.72
2019-03-24T15:07:31.231Z,50.53
2019-03-24T15:10:45.373Z,51.78
2019-03-24T15:13:59.539Z,51.61
2019-03-24T15:17:13.676Z,52.57
2019-03-24T15:20:27.864Z,54.48
2019-03-24T15:23:41.915Z,56.10
2019-03-24T15:26:56.301Z,57.64
2019-03-24T15:30:11.446Z,57.85
2019-03-24T15:33:25.466Z,58.65
2019-03-24T15:36:39.623Z,59.53
2019-03-24T15:39:53.647Z,59.87
2019-03-24T15:43:08.151Z,59.94
2019-03-24T15:46:22.504Z,59.88
2019-03-24T15:49:36.684Z,59.08
2019-03-24T15:52:50.857Z,58.44
2019-03-24T15:56:05.028Z,58.62
2019-03-24T15:59:20.003Z,58.63
2019-03-24T16:02:34.547Z,58.61
2019-03-24T16:05:49.027Z,58.77
2019-03-24T16:09:05.938Z,58.78
2019-03-24T16:12:20.570Z,59.09
2019-03-24T16:15:34.992Z,59.41
2019-03-24T16:18:49.687Z,59.05
2019-03-24T16:22:03.912Z,58.14
2019-03-24T16:25:18.103Z,58.38
2019-03-24T16:28:32.213Z,58.66
2019-03-24T16:31:46.260Z,59.53
2019-03-24T16:35:00.413Z,59.97
2019-03-24T16:38:15.116Z,60.43
2019-03-24T16:41:29.315Z,59.19
2019-03-24T16:44:43.324Z,58.14
2019-03-24T16:47:57.601Z,57.96
2019-03-24T16:51:11.769Z,57.71
2019-03-24T16:54:25.878Z,57.99
2019-03-24T16:57:40.006Z,57.73
2019-03-24T17:00:54.322Z,58.34
2019-03-24T17:04:08.613Z,57.91
2019-03-24T17:07:22.945Z,57.67
2019-03-24T17:10:37.313Z,57.81
2019-03-24T17:13:51.548Z,57.97
2019-03-24T17:17:05.953Z,57.75
2019-03-24T17:20:20.185Z,57.63
2019-03-24T17:23:34.195Z,56.98
2019-03-24T17:26:48.224Z,57.15
2019-03-24T17:30:03.085Z,57.30
2019-03-24T17:33:17.357Z,57.74
2019-03-24T17:36:31.377Z,58.09
2019-03-24T17:39:45.404Z,58.04
2019-03-24T17:42:59.446Z,58.30
2019-03-24T17:46:13.661Z,59.11
2019-03-24T17:49:27.838Z,59.96
2019-03-24T17:52:42.277Z,60.73
2019-03-24T17:55:56.305Z,60.80
2019-03-24T17:59:10.357Z,61.60
2019-03-24T18:02:24.635Z,62.00
2019-03-24T18:05:39.058Z,63.27
2019-03-24T18:08:53.391Z,63.92
2019-03-24T18:12:07.732Z,64.51
2019-03-24T18:15:22.149Z,64.87
2019-03-24T18:18:37.273Z,65.24
2019-03-24T18:21:51.722Z,65.51
2019-03-24T18:25:07.601Z,66.03
2019-03-24T18:28:22.006Z,67.26
2019-03-24T18:31:36.145Z,67.59
2019-03-24T18:34:50.171Z,68.00
2019-03-24T18:38:04.562Z,68.42
2019-03-24T18:41:18.687Z,68.70
2019-03-24T18:44:33.004Z,69.04
2019-03-24T18:47:47.277Z,69.24
2019-03-24T18:51:01.965Z,69.60
2019-03-24T18:54:16.158Z,69.96
2019-03-24T18:57:30.528Z,70.47
2019-03-24T19:00:44.658Z,70.38
2019-03-24T19:03:59.256Z,70.41
2019-03-24T19:07:13.701Z,70.64
2019-03-24T19:10:28.062Z,71.13
2019-03-24T19:13:42.126Z,71.21
2019-03-24T19:16:56.417Z,72.02
2019-03-24T19:20:11.241Z,72.21
2019-03-24T19:23:25.255Z,72.67
2019-03-24T19:26:39.587Z,72.27
2019-03-24T19:29:53.904Z,72.70
2019-03-24T19:33:08.167Z,73.19
2019-03-24T19:36:22.202Z,73.43
2019-03-24T19:39:36.431Z,73.74
2019-03-24T19:42:50.771Z,73.47
2019-03-24T19:46:04.960Z,72.79
2019-03-24T19:49:19.318Z,73.03
2019-03-24T19:52:44.115Z,73.24
2019-03-24T19:55:49.271Z,73.95
2019-03-24T19:59:03.627Z,74.94
2019-03-24T20:02:17.657Z,75.66
2019-03-24T20:05:32.084Z,75.96
2019-03-24T20:08:46.416Z,76.19
2019-03-24T20:12:00.454Z,76.58
2019-03-24T20:15:14.739Z,76.34
2019-03-24T20:18:29.119Z,76.52
2019-03-24T20:21:43.099Z,76.05
2019-03-24T20:24:57.123Z,75.75
2019-03-24T20:28:11.147Z,76.68
2019-03-24T20:31:25.580Z,76.82
2019-03-24T20:34:39.613Z,76.42
2019-03-24T20:37:53.622Z,77.20
2019-03-24T20:41:07.771Z,77.78
2019-03-24T20:44:22.084Z,78.39
2019-03-24T20:47:36.317Z,78.88
2019-03-24T20:50:50.633Z,79.42
2019-03-24T20:54:04.693Z,78.78
2019-03-24T20:57:18.749Z,78.07
2019-03-24T21:00:34.487Z,77.90
2019-03-24T21:03:48.608Z,78.15
2019-03-24T21:07:02.750Z,78.90
2019-03-24T21:10:16.777Z,79.06
2019-03-24T21:13:31.080Z,79.71
2019-03-24T21:16:45.357Z,80.20
2019-03-24T21:19:59.502Z,80.03
2019-03-24T21:23:13.570Z,80.25
2019-03-24T21:26:27.599Z,80.22
2019-03-24T21:29:41.628Z,80.20
2019-03-24T21:32:55.973Z,80.07
2019-03-24T21:36:10.009Z,79.57
2019-03-24T21:39:24.133Z,79.45
2019-03-24T21:42:38.141Z,79.33
2019-03-24T21:45:52.196Z,78.92
2019-03-24T21:49:06.211Z,79.31
2019-03-24T21:52:20.356Z,79.48
2019-03-24T21:55:34.490Z,79.44
2019-03-24T21:58:49.252Z,79.41
2019-03-24T22:02:04.147Z,79.50
2019-03-24T22:05:18.434Z,79.68
2019-03-24T22:08:32.482Z,80.16
2019-03-24T22:11:46.822Z,80.55
2019-03-24T22:15:00.989Z,80.59
2019-03-24T22:18:14.984Z,80.96
2019-03-24T22:21:29.486Z,80.62
2019-03-24T22:24:43.921Z,80.76
2019-03-24T22:27:58.083Z,79.91
2019-03-24T22:31:12.118Z,80.71
2019-03-24T22:34:26.155Z,80.59
2019-03-24T22:37:40.213Z,81.11
2019-03-24T22:40:54.329Z,81.30
2019-03-24T22:44:08.646Z,81.02
2019-03-24T22:47:22.661Z,81.09
2019-03-24T22:50:36.711Z,81.25
2019-03-24T22:53:50.732Z,81.54
2019-03-24T22:57:04.857Z,81.54
2019-03-24T23:00:25.116Z,81.58
2019-03-24T23:03:39.116Z,81.33
2019-03-24T23:06:53.266Z,81.64
2019-03-24T23:10:07.519Z,81.46
2019-03-24T23:13:21.523Z,81.84
2019-03-24T23:16:35.566Z,81.75
2019-03-24T23:19:49.580Z,81.90
2019-03-24T23:23:03.730Z,82.25
2019-03-24T23:26:17.974Z,82.50
2019-03-24T23:29:31.999Z,82.87
2019-03-24T23:32:46.131Z,82.67
2019-03-24T23:36:00.168Z,82.43
2019-03-24T23:39:14.222Z,82.67
2019-03-24T23:42:28.576Z,82.50
2019-03-24T23:45:42.711Z,82.38
2019-03-24T23:48:56.856Z,82.58
2019-03-24T23:52:11.098Z,82.59
2019-03-24T23:55:25.512Z,82.83
2019-03-24T23:58:41.081Z,83.16
